Time;durP1;ratioP1;P1;durP2;ratioP2;P2;SDS_P1;SDS_P2;PMS_P1;PMS_P2;Temp;Humidity;BMP_temperature;BMP_pressure;BME280_temperature;BME280_humidity;BME280_pressure;Samples;Min_cycle;Max_cycle;Signal;HPM_P1;HPM_P2
2022/10/08 00:00:51;;;;;;;;;;;;;;;12.48;100.00;101538.53;5056605;28;19944;-66
2022/10/08 00:03:17;;;;;;;;;;;;;;;12.50;100.00;101535.06;5054640;28;19920;-66
2022/10/08 00:05:43;;;;;;;;;;;;;;;12.45;100.00;101530.56;5052742;28;19979;-66
2022/10/08 00:08:08;;;;;;;;;;;;;;;12.47;100.00;101534.13;5060724;28;20380;-66
2022/10/08 00:10:34;;;;;;;;;;;;;;;12.48;100.00;101538.53;5055118;28;19928;-66
2022/10/08 00:13:00;;;;;;;;;;;;;;;12.50;100.00;101532.41;5057135;28;20007;-67
2022/10/08 00:15:25;;;;;;;;;;;;;;;12.40;100.00;101545.41;5052697;28;19977;-65
2022/10/08 00:17:50;;;;;;;;;;;;;;;12.43;100.00;101537.56;5058135;28;19924;-65
2022/10/08 00:20:16;;;;;;;;;;;;;;;12.37;100.00;101548.00;5066382;28;19921;-66
2022/10/08 00:22:41;;;;;;;;;;;;;;;12.38;100.00;101541.84;5055723;28;19917;-66
2022/10/08 00:25:07;;;;;;;;;;;;;;;12.31;100.00;101542.59;5051783;28;20426;-66
2022/10/08 00:27:33;;;;;;;;;;;;;;;12.29;100.00;101549.59;5061772;28;19916;-66
2022/10/08 00:29:58;;;;;;;;;;;;;;;12.39;100.00;101548.03;5061405;28;20330;-67
2022/10/08 00:32:24;;;;;;;;;;;;;;;12.35;100.00;101569.94;5053898;28;19999;-67
2022/10/08 00:34:49;;;;;;;;;;;;;;;12.36;100.00;101556.78;5062151;28;19975;-66
2022/10/08 00:37:14;;;;;;;;;;;;;;;12.34;100.00;101566.41;5052983;28;19920;-66
2022/10/08 00:39:40;;;;;;;;;;;;;;;12.37;100.00;101558.56;5052283;28;19917;-66
2022/10/08 00:42:05;;;;;;;;;;;;;;;12.33;100.00;101551.44;5059933;28;20368;-65
2022/10/08 00:44:48;;;;;;;;;;;;;;;12.34;100.00;101553.19;5056929;28;19974;-66
2022/10/08 00:47:32;;;;;;;;;;;;;;;12.35;100.00;101565.53;5055817;28;19916;-66
2022/10/08 00:50:17;;;;;;;;;;;;;;;12.35;100.00;101547.06;5055150;28;19921;-66
2022/10/08 00:52:46;;;;;;;;;;;;;;;12.36;100.00;101554.13;5058641;28;19917;-66
2022/10/08 00:55:12;;;;;;;;;;;;;;;12.36;100.00;101556.78;5059115;28;19964;-65
2022/10/08 00:57:38;;;;;;;;;;;;;;;12.37;100.00;101555.00;5062385;28;19970;-65
2022/10/08 01:00:08;;;;;;;;;;;;;;;12.34;100.00;101553.19;5060140;28;20357;-65
2022/10/08 01:02:34;;;;;;;;;;;;;;;12.38;100.00;101551.53;5036767;28;19960;-66
2022/10/08 01:04:59;;;;;;;;;;;;;;;12.38;100.00;101551.53;5066570;28;20403;-67
2022/10/08 01:07:24;;;;;;;;;;;;;;;12.38;100.00;101544.47;5068596;28;19971;-67
2022/10/08 01:09:59;;;;;;;;;;;;;;;12.40;100.00;101548.06;5062386;28;19939;-65
2022/10/08 01:12:27;;;;;;;;;;;;;;;12.40;100.00;101549.78;5051002;28;19924;-65
2022/10/08 01:14:59;;;;;;;;;;;;;;;12.39;100.00;101543.63;5065451;28;20049;-65
2022/10/08 01:17:30;;;;;;;;;;;;;;;12.43;100.00;101553.38;5056335;28;19916;-65
2022/10/08 01:19:55;;;;;;;;;;;;;;;12.43;100.00;101542.84;5055747;28;19924;-66
2022/10/08 01:22:24;;;;;;;;;;;;;;;12.44;100.00;101543.75;5062441;28;19924;-65
2022/10/08 01:27:47;;;;;;;;;;;;;;;12.45;100.00;101546.41;5051506;28;20298;-65
2022/10/08 01:30:13;;;;;;;;;;;;;;;12.46;100.00;101550.81;5065315;28;19967;-65
2022/10/08 01:33:02;;;;;;;;;;;;;;;12.45;100.00;101545.50;5054912;28;20618;-65
2022/10/08 01:35:29;;;;;;;;;;;;;;;12.43;100.00;101553.38;5038268;28;19971;-66
2022/10/08 01:37:58;;;;;;;;;;;;;;;12.40;100.00;101555.97;5061738;28;19924;-66
2022/10/08 01:40:28;;;;;;;;;;;;;;;12.36;100.00;101554.13;5070462;28;19970;-66
2022/10/08 01:42:54;;;;;;;;;;;;;;;12.32;100.00;101549.66;5057844;28;19951;-65
2022/10/08 01:45:25;;;;;;;;;;;;;;;12.30;100.00;101556.63;5038993;28;20415;-65
2022/10/08 01:47:50;;;;;;;;;;;;;;;12.25;100.00;101553.00;5060580;28;20015;-64
2022/10/08 01:50:27;;;;;;;;;;;;;;;12.21;100.00;101556.44;5067593;28;20011;-65
2022/10/08 01:52:55;;;;;;;;;;;;;;;12.17;100.00;101554.59;5054770;28;21563;-66
2022/10/08 01:55:23;;;;;;;;;;;;;;;12.14;100.00;101561.59;5062453;28;19917;-66
2022/10/08 01:57:49;;;;;;;;;;;;;;;12.10;100.00;101561.47;5059364;28;20333;-67
2022/10/08 02:00:16;;;;;;;;;;;;;;;12.05;100.00;101561.41;5053910;28;20281;-66
2022/10/08 02:02:41;;;;;;;;;;;;;;;11.99;100.00;101563.88;5055380;28;20301;-66
2022/10/08 02:05:07;;;;;;;;;;;;;;;11.98;100.00;101555.09;5057560;28;19917;-66
2022/10/08 02:07:35;;;;;;;;;;;;;;;11.94;100.00;101558.50;5061558;28;19950;-66
2022/10/08 02:10:11;;;;;;;;;;;;;;;11.92;100.00;101559.31;5060430;28;19921;-66
2022/10/08 02:12:38;;;;;;;;;;;;;;;11.85;100.00;101560.03;5043096;28;19920;-66
2022/10/08 02:15:05;;;;;;;;;;;;;;;11.79;100.00;101568.69;5061249;28;19923;-66
2022/10/08 02:17:36;;;;;;;;;;;;;;;11.75;100.00;101567.72;5063439;28;20381;-66
2022/10/08 02:20:04;;;;;;;;;;;;;;;11.70;100.00;101568.47;5063904;28;19923;-66
2022/10/08 02:22:33;;;;;;;;;;;;;;;11.66;100.00;101567.50;5063268;28;19928;-66
2022/10/08 02:25:19;;;;;;;;;;;;;;;11.62;100.00;101563.00;5058801;28;19916;-66
2022/10/08 02:27:52;;;;;;;;;;;;;;;11.59;100.00;101570.84;5046742;28;19943;-65
2022/10/08 02:30:18;;;;;;;;;;;;;;;11.58;100.00;101569.06;5065000;28;20019;-66
2022/10/08 02:32:43;;;;;;;;;;;;;;;11.56;100.00;101576.06;5055268;28;20362;-66
2022/10/08 02:35:13;;;;;;;;;;;;;;;11.58;100.00;101579.59;5056493;28;20430;-65
2022/10/08 02:37:44;;;;;;;;;;;;;;;11.59;100.00;101576.13;5057015;28;19926;-65
2022/10/08 02:40:10;;;;;;;;;;;;;;;11.57;100.00;101573.47;5073081;28;19920;-65
2022/10/08 02:42:39;;;;;;;;;;;;;;;11.56;100.00;101570.78;5061899;28;19928;-65
2022/10/08 02:45:27;;;;;;;;;;;;;;;11.53;100.00;101575.97;5061389;28;19916;-66
2022/10/08 02:47:56;;;;;;;;;;;;;;;11.50;100.00;101579.41;5046164;28;19948;-66
2022/10/08 02:50:24;;;;;;;;;;;;;;;11.48;100.00;101579.38;5058101;28;19927;-65
2022/10/08 02:52:52;;;;;;;;;;;;;;;11.46;100.00;101588.09;5053924;28;19916;-65
2022/10/08 02:55:20;;;;;;;;;;;;;;;11.39;100.00;101589.69;5061658;28;19925;-65
2022/10/08 02:57:49;;;;;;;;;;;;;;;11.33;100.00;101588.63;5058119;28;20385;-65
2022/10/08 03:00:14;;;;;;;;;;;;;;;11.27;100.00;101586.75;5062835;28;19920;-66
2022/10/08 03:02:44;;;;;;;;;;;;;;;11.24;100.00;101597.22;5054824;28;19917;-65
2022/10/08 03:05:15;;;;;;;;;;;;;;;11.16;100.00;101601.38;5061167;28;19921;-65
2022/10/08 03:07:41;;;;;;;;;;;;;;;11.13;100.00;101604.81;5048271;28;19924;-66
2022/10/08 03:10:07;;;;;;;;;;;;;;;11.09;100.00;101608.22;5059825;28;19920;-66
2022/10/08 03:12:32;;;;;;;;;;;;;;;11.07;100.00;101607.28;5060946;28;19922;-65
2022/10/08 03:14:58;;;;;;;;;;;;;;;11.06;100.00;101606.41;5060466;28;19924;-65
2022/10/08 03:17:29;;;;;;;;;;;;;;;11.06;100.00;101613.44;5043954;28;19917;-66
2022/10/08 03:19:54;;;;;;;;;;;;;;;11.07;100.00;101613.47;5062180;28;20435;-66
2022/10/08 03:22:20;;;;;;;;;;;;;;;11.11;100.00;101615.31;5057908;28;20058;-65
2022/10/08 03:24:45;;;;;;;;;;;;;;;11.15;100.00;101616.31;5057211;28;19924;-65
2022/10/08 03:27:10;;;;;;;;;;;;;;;11.18;100.00;101615.47;5053332;28;19943;-66
2022/10/08 03:29:35;;;;;;;;;;;;;;;11.12;100.00;101619.75;5055540;28;20384;-66
2022/10/08 03:32:01;;;;;;;;;;;;;;;11.08;100.00;101617.88;5051679;28;19924;-66
2022/10/08 03:34:26;;;;;;;;;;;;;;;11.05;100.00;101615.16;5054635;28;20342;-65
2022/10/08 03:36:51;;;;;;;;;;;;;;;11.04;100.00;101617.75;5053607;28;19917;-66
2022/10/08 03:39:16;;;;;;;;;;;;;;;11.01;100.00;101629.09;5062334;28;19917;-65
2022/10/08 03:41:41;;;;;;;;;;;;;;;11.04;100.00;101631.81;5065666;28;19920;-66
2022/10/08 03:44:08;;;;;;;;;;;;;;;11.04;100.00;101625.66;5058567;28;19947;-66
2022/10/08 03:46:33;;;;;;;;;;;;;;;11.04;100.00;101634.47;5053803;28;20297;-66
2022/10/08 03:48:58;;;;;;;;;;;;;;;11.08;100.00;101638.06;5063497;28;19920;-66
2022/10/08 03:51:23;;;;;;;;;;;;;;;11.07;100.00;101639.81;5054482;28;19916;-66
2022/10/08 03:53:49;;;;;;;;;;;;;;;11.06;100.00;101640.66;5057238;28;19923;-66
2022/10/08 03:56:15;;;;;;;;;;;;;;;11.04;100.00;101645.00;5060821;28;19917;-66
2022/10/08 03:58:41;;;;;;;;;;;;;;;11.03;100.00;101643.22;5055177;28;19917;-65
2022/10/08 04:01:09;;;;;;;;;;;;;;;11.04;100.00;101649.34;5054341;28;19966;-65
2022/10/08 04:03:35;;;;;;;;;;;;;;;11.06;100.00;101650.31;5057404;28;19962;-66
2022/10/08 04:06:00;;;;;;;;;;;;;;;11.05;100.00;101661.69;5063976;28;19956;-65
2022/10/08 04:08:25;;;;;;;;;;;;;;;11.04;100.00;101654.63;5057597;28;19979;-65
2022/10/08 04:10:51;;;;;;;;;;;;;;;11.01;100.00;101658.06;5059321;28;20406;-65
2022/10/08 04:13:16;;;;;;;;;;;;;;;11.04;100.00;101658.16;5053707;28;19944;-66
2022/10/08 04:15:42;;;;;;;;;;;;;;;11.04;100.00;101662.53;5053715;28;19917;-66
2022/10/08 04:18:11;;;;;;;;;;;;;;;11.03;100.00;101660.72;5056834;28;20038;-65
2022/10/08 04:20:36;;;;;;;;;;;;;;;11.07;100.00;101668.78;5064824;28;19923;-66
2022/10/08 04:23:02;;;;;;;;;;;;;;;11.04;100.00;101666.06;5050365;28;19921;-65
2022/10/08 04:25:27;;;;;;;;;;;;;;;11.02;100.00;101670.38;5051334;28;20238;-66
2022/10/08 04:27:52;;;;;;;;;;;;;;;11.02;100.00;101673.00;5058586;28;19920;-65
2022/10/08 04:30:17;;;;;;;;;;;;;;;10.97;100.00;101679.88;5066917;28;20364;-66
2022/10/08 04:32:42;;;;;;;;;;;;;;;10.94;100.00;101674.53;5055078;28;19917;-66
2022/10/08 04:35:08;;;;;;;;;;;;;;;10.93;100.00;101667.47;5055629;28;19963;-66
2022/10/08 04:37:33;;;;;;;;;;;;;;;10.95;100.00;101682.47;5063129;28;19962;-66
2022/10/08 04:39:58;;;;;;;;;;;;;;;11.01;100.00;101676.50;5056805;28;20363;-66
2022/10/08 04:42:23;;;;;;;;;;;;;;;11.02;100.00;101678.28;5052950;28;20008;-66
2022/10/08 04:44:49;;;;;;;;;;;;;;;11.02;100.00;101682.66;5054236;28;20003;-66
2022/10/08 04:47:14;;;;;;;;;;;;;;;11.02;100.00;101680.91;5069386;28;19951;-66
2022/10/08 04:49:39;;;;;;;;;;;;;;;11.00;100.00;101679.09;5056218;28;20019;-67
2022/10/08 04:52:04;;;;;;;;;;;;;;;11.00;100.00;101684.34;5063061;28;19917;-66
2022/10/08 04:54:29;;;;;;;;;;;;;;;10.96;100.00;101688.66;5056290;28;19917;-66
2022/10/08 04:56:55;;;;;;;;;;;;;;;10.95;100.00;101693.00;5061147;28;19916;-66
2022/10/08 04:59:20;;;;;;;;;;;;;;;10.99;100.00;101691.38;5054849;28;19921;-65
2022/10/08 05:01:45;;;;;;;;;;;;;;;10.98;100.00;101702.75;5048922;28;20272;-66
2022/10/08 05:04:10;;;;;;;;;;;;;;;10.94;100.00;101698.25;5034607;28;19924;-65
2022/10/08 05:06:35;;;;;;;;;;;;;;;10.93;100.00;101694.72;5051390;28;19921;-65
2022/10/08 05:09:04;;;;;;;;;;;;;;;10.93;100.00;101704.34;5060687;28;19940;-66
2022/10/08 05:11:29;;;;;;;;;;;;;;;10.94;100.00;101706.13;5057150;28;19917;-67
2022/10/08 05:13:55;;;;;;;;;;;;;;;10.98;100.00;101713.28;5057289;28;19923;-66
2022/10/08 05:16:21;;;;;;;;;;;;;;;10.98;100.00;101718.56;5059565;28;19920;-66
2022/10/08 05:18:49;;;;;;;;;;;;;;;10.99;100.00;101724.69;5060772;28;20368;-66
2022/10/08 05:21:15;;;;;;;;;;;;;;;11.00;100.00;101727.41;5059358;28;20428;-67
2022/10/08 05:23:43;;;;;;;;;;;;;;;10.96;100.00;101722.91;5050531;28;19917;-65
2022/10/08 05:26:13;;;;;;;;;;;;;;;10.94;100.00;101727.22;5051386;28;20000;-66
2022/10/08 05:28:38;;;;;;;;;;;;;;;10.97;100.00;101729.91;5053112;28;20360;-65
2022/10/08 05:31:03;;;;;;;;;;;;;;;11.02;100.00;101733.59;5057002;28;19917;-67
2022/10/08 05:33:28;;;;;;;;;;;;;;;11.08;100.00;101738.13;5061600;28;19917;-66
2022/10/08 05:35:54;;;;;;;;;;;;;;;11.11;100.00;101733.88;5064053;28;19974;-66
2022/10/08 05:38:19;;;;;;;;;;;;;;;11.12;100.00;101733.03;5043606;28;19917;-67
2022/10/08 05:40:44;;;;;;;;;;;;;;;11.10;100.00;101737.34;5061743;28;19917;-65
2022/10/08 05:43:09;;;;;;;;;;;;;;;11.10;100.00;101747.88;5061619;28;19913;-67
2022/10/08 05:45:34;;;;;;;;;;;;;;;11.11;100.00;101749.66;5067667;28;20344;-67
2022/10/08 05:48:00;;;;;;;;;;;;;;;11.09;100.00;101750.47;5067566;28;19916;-67
2022/10/08 05:50:25;;;;;;;;;;;;;;;11.06;100.00;101750.38;5056412;28;19921;-66
2022/10/08 05:52:50;;;;;;;;;;;;;;;11.01;100.00;101760.78;5036322;28;19918;-66
2022/10/08 05:55:15;;;;;;;;;;;;;;;10.99;100.00;101762.47;5058496;28;19927;-66
2022/10/08 05:57:40;;;;;;;;;;;;;;;11.03;100.00;101764.34;5058586;28;19970;-66
2022/10/08 06:00:06;;;;;;;;;;;;;;;11.04;100.00;101771.41;5061596;28;20011;-66
2022/10/08 06:02:31;;;;;;;;;;;;;;;11.09;100.00;101780.31;5059089;28;20279;-66
2022/10/08 06:04:56;;;;;;;;;;;;;;;11.15;100.00;101784.91;5054017;28;19917;-66
2022/10/08 06:07:22;;;;;;;;;;;;;;;11.21;100.00;101786.81;5056217;28;19917;-66
2022/10/08 06:09:47;;;;;;;;;;;;;;;11.28;100.00;101791.41;5055779;28;19925;-66
2022/10/08 06:12:12;;;;;;;;;;;;;;;11.32;100.00;101797.66;5055294;28;20345;-66
2022/10/08 06:14:38;;;;;;;;;;;;;;;11.37;100.00;101803.97;5060594;28;19939;-66
2022/10/08 06:17:03;;;;;;;;;;;;;;;11.35;100.00;101803.91;5065124;28;20279;-65
2022/10/08 06:19:29;;;;;;;;;;;;;;;11.38;100.00;101808.38;5064881;28;19916;-66
2022/10/08 06:21:54;;;;;;;;;;;;;;;11.35;100.00;101814.44;5068787;28;19924;-67
2022/10/08 06:24:20;;;;;;;;;;;;;;;11.39;100.00;101818.94;5068776;28;19978;-67
2022/10/08 06:26:45;;;;;;;;;;;;;;;11.39;100.00;101829.50;5061774;28;19924;-67
2022/10/08 06:29:13;;;;;;;;;;;;;;;11.42;100.00;101826.97;5068505;28;19916;-67
2022/10/08 06:31:38;;;;;;;;;;;;;;;11.43;100.00;101834.00;5049706;28;19920;-67
2022/10/08 06:34:04;;;;;;;;;;;;;;;11.44;100.00;101835.78;5067330;28;20321;-67
2022/10/08 06:36:30;;;;;;;;;;;;;;;11.46;100.00;101844.66;5064824;28;20371;-67
2022/10/08 06:38:56;;;;;;;;;;;;;;;11.53;100.00;101851.00;5059451;28;19920;-67
2022/10/08 06:41:22;;;;;;;;;;;;;;;11.58;100.00;101857.28;5050687;28;20011;-66
2022/10/08 06:43:47;;;;;;;;;;;;;;;11.62;100.00;101859.19;5057178;28;20472;-66
2022/10/08 06:46:12;;;;;;;;;;;;;;;11.68;100.00;101854.91;5055707;28;20261;-66
2022/10/08 06:48:38;;;;;;;;;;;;;;;11.70;100.00;101861.13;5060757;28;20280;-66
2022/10/08 06:51:05;;;;;;;;;;;;;;;11.72;100.00;101870.88;5060463;28;20000;-66
2022/10/08 06:53:30;;;;;;;;;;;;;;;11.75;100.00;101870.06;5062766;28;20320;-66
2022/10/08 06:55:57;;;;;;;;;;;;;;;11.73;100.00;101866.47;5061001;28;19920;-66
2022/10/08 06:58:22;;;;;;;;;;;;;;;11.72;100.00;101868.22;5060208;28;20271;-66
2022/10/08 07:00:47;;;;;;;;;;;;;;;11.72;100.00;101873.50;5055879;28;19917;-67
2022/10/08 07:03:12;;;;;;;;;;;;;;;11.79;100.00;101878.09;5060234;28;19917;-66
2022/10/08 07:05:38;;;;;;;;;;;;;;;11.82;100.00;101886.09;5057500;28;19923;-66
2022/10/08 07:08:03;;;;;;;;;;;;;;;11.86;100.00;101880.91;5055301;28;19921;-66
2022/10/08 07:10:28;;;;;;;;;;;;;;;11.84;100.00;101886.13;5052414;28;19921;-66
2022/10/08 07:12:53;;;;;;;;;;;;;;;11.85;100.00;101889.66;5055765;28;19924;-66
2022/10/08 07:15:18;;;;;;;;;;;;;;;11.89;100.00;101892.44;5049647;28;19917;-67
2022/10/08 07:17:44;;;;;;;;;;;;;;;11.94;100.00;101895.22;5058042;28;19920;-66
2022/10/08 07:20:09;;;;;;;;;;;;;;;11.98;100.00;101898.00;5055539;28;19921;-66
2022/10/08 07:22:34;;;;;;;;;;;;;;;12.05;100.00;101909.63;5049672;28;20261;-66
2022/10/08 07:25:00;;;;;;;;;;;;;;;12.12;100.00;101903.66;5055621;28;19912;-67
2022/10/08 07:27:25;;;;;;;;;;;;;;;12.23;100.00;101913.59;5058601;28;19916;-66
2022/10/08 07:29:50;;;;;;;;;;;;;;;12.32;100.00;101920.03;5053312;28;19921;-67
2022/10/08 07:32:16;;;;;;;;;;;;;;;12.37;100.00;101925.44;5063600;28;20292;-66
2022/10/08 07:34:41;;;;;;;;;;;;;;;12.43;100.00;101933.50;5053851;28;20302;-67
2022/10/08 07:37:06;;;;;;;;;;;;;;;12.48;100.00;101939.81;5034624;28;19920;-67
2022/10/08 07:39:31;;;;;;;;;;;;;;;12.53;100.00;101936.38;5068485;28;19917;-67
2022/10/08 07:41:56;;;;;;;;;;;;;;;12.51;100.00;101940.72;5056187;28;20377;-67
2022/10/08 07:44:22;;;;;;;;;;;;;;;12.55;100.00;101947.91;5059624;28;20246;-67
2022/10/08 07:46:48;;;;;;;;;;;;;;;12.57;100.00;101957.63;5056767;28;19917;-66
2022/10/08 07:49:14;;;;;;;;;;;;;;;12.60;100.00;101955.09;5051583;28;20353;-67
2022/10/08 07:51:40;;;;;;;;;;;;;;;12.64;100.00;101958.69;5051019;28;19921;-66
2022/10/08 07:54:07;;;;;;;;;;;;;;;12.65;100.00;101960.47;5055860;28;19921;-66
2022/10/08 07:56:33;;;;;;;;;;;;;;;12.70;100.00;101956.22;5055869;28;19917;-66
2022/10/08 07:58:59;;;;;;;;;;;;;;;12.71;100.00;101954.44;5052710;28;19917;-72
2022/10/08 08:01:28;;;;;;;;;;;;;;;12.72;100.00;101967.69;5052239;28;19947;-66
2022/10/08 08:03:54;;;;;;;;;;;;;;;12.75;100.00;101978.34;5059500;28;19917;-66
2022/10/08 08:06:20;;;;;;;;;;;;;;;12.78;100.00;101978.44;5057403;28;19952;-66
2022/10/08 08:08:46;;;;;;;;;;;;;;;12.82;100.00;101977.66;5053100;28;19971;-66
2022/10/08 08:11:13;;;;;;;;;;;;;;;12.87;100.00;101984.78;5046876;28;19928;-66
2022/10/08 08:13:39;;;;;;;;;;;;;;;12.94;100.00;101992.00;5056292;28;19924;-66
2022/10/08 08:16:08;;;;;;;;;;;;;;;12.96;100.00;101990.31;5065337;28;19916;-66
2022/10/08 08:18:35;;;;;;;;;;;;;;;13.00;100.00;101997.47;5061426;28;19921;-66
2022/10/08 08:21:01;;;;;;;;;;;;;;;13.08;100.00;102003.84;5063655;28;20410;-65
2022/10/08 08:23:31;;;;;;;;;;;;;;;13.12;100.00;102005.69;5052701;28;19935;-66
2022/10/08 08:25:58;;;;;;;;;;;;;;;13.17;100.00;102008.44;5055876;28;20273;-66
2022/10/08 08:28:24;;;;;;;;;;;;;;;13.24;100.00;102004.19;5058367;28;20348;-66
2022/10/08 08:30:49;;;;;;;;;;;;;;;13.31;100.00;102006.16;5056894;28;19998;-66
2022/10/08 08:33:14;;;;;;;;;;;;;;;13.38;100.00;102010.75;5041533;28;20284;-66
2022/10/08 08:35:48;;;;;;;;;;;;;;;13.46;100.00;102022.41;5052150;28;19923;-66
2022/10/08 08:38:13;;;;;;;;;;;;;;;13.54;100.00;102029.59;5061343;28;19986;-66
2022/10/08 08:40:39;;;;;;;;;;;;;;;13.64;100.00;102034.28;5058782;28;19917;-66
2022/10/08 08:43:04;;;;;;;;;;;;;;;13.80;100.00;102036.41;5050571;28;19916;-67
2022/10/08 08:45:32;;;;;;;;;;;;;;;14.00;100.00;102041.25;5057066;28;19912;-66
2022/10/08 08:48:01;;;;;;;;;;;;;;;14.07;100.00;102043.16;5067083;28;20023;-68
2022/10/08 08:50:32;;;;;;;;;;;;;;;14.01;100.00;102045.66;5048616;28;19924;-65
2022/10/08 08:52:57;;;;;;;;;;;;;;;13.90;100.00;102047.19;5052702;28;19977;-66
2022/10/08 08:55:32;;;;;;;;;;;;;;;13.76;100.00;102063.63;5056566;28;19952;-66
2022/10/08 08:58:16;;;;;;;;;;;;;;;14.03;100.00;102057.19;5058796;28;19927;-66
2022/10/08 09:00:44;;;;;;;;;;;;;;;14.38;100.00;102051.75;5059468;28;20306;-66
2022/10/08 09:03:19;;;;;;;;;;;;;;;14.44;100.00;102065.09;5048012;28;19920;-65
2022/10/08 09:05:45;;;;;;;;;;;;;;;14.35;100.00;102070.19;5032952;28;19913;-67
2022/10/08 09:08:22;;;;;;;;;;;;;;;14.35;100.00;102070.19;5059295;28;19916;-66
2022/10/08 09:10:53;;;;;;;;;;;;;;;14.31;100.00;102073.66;5059092;28;19921;-65
2022/10/08 09:13:21;;;;;;;;;;;;;;;14.15;100.00;102073.34;5054367;28;19967;-65
2022/10/08 09:15:46;;;;;;;;;;;;;;;14.23;100.00;102083.19;5071349;28;19927;-66
2022/10/08 09:18:13;;;;;;;;;;;;;;;14.34;100.00;102089.63;5064390;28;19912;-65
2022/10/08 09:20:39;;;;;;;;;;;;;;;14.60;100.00;102081.31;5063896;28;19921;-66
2022/10/08 09:23:12;;;;;;;;;;;;;;;14.72;100.00;102085.97;5071989;28;19919;-65
2022/10/08 09:25:38;;;;;;;;;;;;;;;14.76;99.41;102091.38;5058899;28;20011;-66
2022/10/08 09:28:04;;;;;;;;;;;;;;;14.97;100.00;102097.94;5057832;28;19913;-66
2022/10/08 09:30:32;;;;;;;;;;;;;;;15.12;95.58;102106.16;5055651;28;19920;-66
2022/10/08 09:32:59;;;;;;;;;;;;;;;15.40;95.31;102109.31;5065303;28;19920;-66
2022/10/08 09:35:24;;;;;;;;;;;;;;;15.57;95.33;102111.34;5065407;28;19958;-65
2022/10/08 09:37:51;;;;;;;;;;;;;;;15.70;90.96;102107.16;5062056;28;19920;-66
2022/10/08 09:40:19;;;;;;;;;;;;;;;15.52;84.34;102120.13;5056659;28;20487;-65
2022/10/08 09:42:44;;;;;;;;;;;;;;;15.44;84.32;102120.88;5050883;28;19917;-65
2022/10/08 09:45:33;;;;;;;;;;;;;;;15.50;84.45;102121.88;5053578;28;19928;-66
2022/10/08 09:48:12;;;;;;;;;;;;;;;15.60;87.57;102120.25;5045932;28;20007;-65
2022/10/08 09:50:45;;;;;;;;;;;;;;;15.58;87.18;102126.41;5063604;28;19921;-66
2022/10/08 09:53:11;;;;;;;;;;;;;;;15.63;86.53;102127.38;5071557;28;19916;-66
2022/10/08 09:55:36;;;;;;;;;;;;;;;15.68;86.97;102133.63;5056018;28;20483;-64
2022/10/08 09:58:03;;;;;;;;;;;;;;;15.62;86.21;102138.84;5044130;28;19943;-64
2022/10/08 10:00:34;;;;;;;;;;;;;;;15.49;84.50;102141.31;5069403;28;20015;-64
2022/10/08 10:03:00;;;;;;;;;;;;;;;15.32;84.38;102141.00;5069235;28;19932;-64
2022/10/08 10:05:26;;;;;;;;;;;;;;;15.41;87.00;102142.94;5055774;28;19999;-65
2022/10/08 10:07:51;;;;;;;;;;;;;;;15.50;87.50;102139.53;5060402;28;19952;-66
2022/10/08 10:10:19;;;;;;;;;;;;;;;15.50;88.53;102147.50;5047917;28;20029;-65
2022/10/08 10:12:47;;;;;;;;;;;;;;;15.34;88.53;102148.97;5067936;28;19913;-65
2022/10/08 10:15:25;;;;;;;;;;;;;;;15.22;88.37;102146.09;5054864;28;20250;-65
2022/10/08 10:17:55;;;;;;;;;;;;;;;15.31;86.65;102156.88;5058169;28;20388;-65
2022/10/08 10:20:21;;;;;;;;;;;;;;;15.61;85.59;102153.91;5063993;28;19927;-66
2022/10/08 10:22:57;;;;;;;;;;;;;;;15.91;81.78;102149.97;5060485;28;19921;-66
2022/10/08 10:25:29;;;;;;;;;;;;;;;16.04;80.55;102156.34;5058165;28;19916;-66
2022/10/08 10:27:58;;;;;;;;;;;;;;;16.14;77.60;102147.66;5054216;28;19924;-65
2022/10/08 10:30:24;;;;;;;;;;;;;;;16.44;78.43;102159.59;5054158;28;20329;-66
2022/10/08 10:33:01;;;;;;;;;;;;;;;16.69;76.79;102167.88;5054469;28;19964;-66
2022/10/08 10:35:27;;;;;;;;;;;;;;;17.00;81.08;102161.16;5056555;28;19928;-66
2022/10/08 10:37:57;;;;;;;;;;;;;;;17.28;72.70;102161.47;5062076;28;19988;-66
2022/10/08 10:40:27;;;;;;;;;;;;;;;17.32;68.36;102179.25;5054907;28;19921;-67
2022/10/08 10:43:11;;;;;;;;;;;;;;;17.22;69.41;102177.38;5052972;28;20031;-65
2022/10/08 10:45:38;;;;;;;;;;;;;;;16.73;71.50;102180.31;5057562;28;19916;-68
2022/10/08 10:48:06;;;;;;;;;;;;;;;16.18;75.70;102184.03;5066005;28;19923;-66
2022/10/08 10:50:34;;;;;;;;;;;;;;;16.47;77.01;102188.84;5062580;28;20019;-65
2022/10/08 10:53:21;;;;;;;;;;;;;;;16.78;73.51;102186.59;5060708;28;19967;-65
2022/10/08 10:55:58;;;;;;;;;;;;;;;16.52;69.67;102184.50;5058758;28;20459;-66
2022/10/08 10:58:33;;;;;;;;;;;;;;;16.77;68.99;102192.78;5063802;28;19913;-73
2022/10/08 11:01:10;;;;;;;;;;;;;;;16.72;70.73;102197.13;5069039;28;19935;-65
2022/10/08 11:03:39;;;;;;;;;;;;;;;16.43;71.88;102200.31;5042128;28;19931;-64
2022/10/08 11:06:13;;;;;;;;;;;;;;;16.29;71.30;102199.19;5060805;28;20352;-65
2022/10/08 11:08:43;;;;;;;;;;;;;;;16.57;70.11;102210.22;5061940;28;20030;-64
2022/10/08 11:11:31;;;;;;;;;;;;;;;16.72;69.15;102198.91;5059219;28;20020;-64
2022/10/08 11:14:16;;;;;;;;;;;;;;;17.22;68.12;102195.97;5059831;28;20284;-64
2022/10/08 11:16:41;;;;;;;;;;;;;;;17.64;60.11;102201.72;5047689;28;19924;-65
2022/10/08 11:19:21;;;;;;;;;;;;;;;17.93;61.38;102209.09;5056769;28;19913;-64
2022/10/08 11:21:52;;;;;;;;;;;;;;;18.46;58.75;102213.91;5058570;28;20264;-65
2022/10/08 11:24:29;;;;;;;;;;;;;;;18.70;55.50;102201.56;5063275;28;19924;-65
2022/10/08 11:26:54;;;;;;;;;;;;;;;18.96;51.97;102214.16;5056162;28;19924;-64
2022/10/08 11:29:29;;;;;;;;;;;;;;;18.96;51.37;102208.81;5057000;28;19929;-66
2022/10/08 11:31:54;;;;;;;;;;;;;;;19.12;50.53;102205.31;5061754;28;19916;-66
2022/10/08 11:34:22;;;;;;;;;;;;;;;18.84;51.58;102212.28;5057780;28;19917;-65
2022/10/08 11:37:06;;;;;;;;;;;;;;;18.07;51.94;102214.50;5037928;28;19956;-66
2022/10/08 11:39:32;;;;;;;;;;;;;;;17.72;55.29;102217.78;5052287;28;19982;-66
2022/10/08 11:42:16;;;;;;;;;;;;;;;18.19;56.03;102219.94;5050228;28;19982;-66
2022/10/08 11:44:41;;;;;;;;;;;;;;;18.08;55.65;102229.63;5045360;28;19917;-65
2022/10/08 11:47:25;;;;;;;;;;;;;;;18.02;55.38;102218.03;5051470;28;19927;-66
2022/10/08 11:49:54;;;;;;;;;;;;;;;17.91;58.32;102227.69;5039977;28;19975;-66
2022/10/08 11:52:19;;;;;;;;;;;;;;;17.85;59.62;102217.88;5052669;28;19917;-65
2022/10/08 11:54:48;;;;;;;;;;;;;;;17.74;62.74;102214.22;5056235;28;20019;-65
2022/10/08 11:57:31;;;;;;;;;;;;;;;18.15;57.63;102219.03;5050301;28;20003;-65
2022/10/08 12:00:02;;;;;;;;;;;;;;;18.69;54.92;102211.34;5050407;28;19916;-65
2022/10/08 12:02:32;;;;;;;;;;;;;;;19.21;55.75;102209.81;5048102;28;20006;-66
2022/10/08 12:04:59;;;;;;;;;;;;;;;19.52;53.26;102213.41;5055736;28;19925;-66
2022/10/08 12:07:34;;;;;;;;;;;;;;;19.60;50.04;102208.09;5054880;28;19917;-66
2022/10/08 12:10:06;;;;;;;;;;;;;;;19.97;50.54;102217.91;5052052;28;19929;-67
2022/10/08 12:12:49;;;;;;;;;;;;;;;20.05;51.76;102222.34;5046860;28;20063;-66
2022/10/08 12:15:23;;;;;;;;;;;;;;;20.06;50.24;102220.56;5066618;28;19999;-67
2022/10/08 12:17:53;;;;;;;;;;;;;;;19.96;51.02;102225.03;5052905;28;20311;-66
2022/10/08 12:20:22;;;;;;;;;;;;;;;19.91;50.48;102217.91;5052222;28;19939;-66
2022/10/08 12:23:20;;;;;;;;;;;;;;;19.02;48.09;102220.41;5058753;28;19928;-66
2022/10/08 12:25:45;;;;;;;;;;;;;;;19.27;50.11;102222.25;5023499;28;19924;-66
2022/10/08 12:28:19;;;;;;;;;;;;;;;19.50;48.28;102223.19;5052380;28;19916;-66
2022/10/08 12:30:46;;;;;;;;;;;;;;;19.63;48.64;102225.88;5062096;28;19928;-66
2022/10/08 12:33:11;;;;;;;;;;;;;;;20.18;49.53;102227.69;5065361;28;19956;-67
2022/10/08 12:35:46;;;;;;;;;;;;;;;20.08;47.70;102224.13;5058202;28;20335;-66